createdAt,value
2018-12-21T00:01:27.500Z,99521.24
2018-12-21T00:03:58.630Z,99518.84
2018-12-21T00:06:29.831Z,99512.89
2018-12-21T00:09:00.925Z,99516.19
2018-12-21T00:11:32.975Z,99518.20
2018-12-21T00:14:04.383Z,99522.30
2018-12-21T00:16:35.466Z,99524.69
2018-12-21T00:19:06.608Z,99518.70
2018-12-21T00:21:37.808Z,99517.04
2018-12-21T00:24:08.903Z,99508.76
2018-12-21T00:26:39.989Z,99494.81
2018-12-21T00:29:10.984Z,99492.57
2018-12-21T00:31:47.352Z,99479.67
2018-12-21T00:34:23.669Z,99487.06
2018-12-21T00:37:00.035Z,99473.30
2018-12-21T00:39:36.677Z,99469.13
2018-12-21T00:42:09.793Z,99470.48
2018-12-21T00:44:40.776Z,99470.86
2018-12-21T00:47:14.628Z,99463.54
2018-12-21T00:49:45.737Z,99465.81
2018-12-21T00:52:16.812Z,99460.19
2018-12-21T00:54:47.904Z,99459.25
2018-12-21T00:57:18.985Z,99448.95
2018-12-21T00:59:50.820Z,99442.09
2018-12-21T01:02:21.883Z,99448.20
2018-12-21T01:04:52.968Z,99441.56
2018-12-21T01:07:24.128Z,99449.94
2018-12-21T01:09:55.216Z,99458.06
2018-12-21T01:12:26.368Z,99455.23
2018-12-21T01:14:57.468Z,99456.17
2018-12-21T01:17:28.477Z,99461.83
2018-12-21T01:19:59.616Z,99458.06
2018-12-21T01:22:30.792Z,99453.13
2018-12-21T01:25:01.889Z,99450.74
2018-12-21T01:27:33.056Z,99457.80
2018-12-21T01:30:04.238Z,99446.03
2018-12-21T01:32:35.684Z,99448.06
2018-12-21T01:35:06.776Z,99455.55
2018-12-21T01:37:37.741Z,99460.80
2018-12-21T01:40:09.300Z,99463.34
2018-12-21T01:42:40.416Z,99457.83
2018-12-21T01:45:11.516Z,99464.27
2018-12-21T01:47:42.587Z,99455.29
2018-12-21T01:50:13.685Z,99445.42
2018-12-21T01:52:44.766Z,99440.77
2018-12-21T01:55:15.864Z,99443.34
2018-12-21T01:57:46.952Z,99440.15
2018-12-21T02:00:18.037Z,99435.05
2018-12-21T02:02:49.389Z,99437.15
2018-12-21T02:05:20.584Z,99439.23
2018-12-21T02:07:51.705Z,99430.47
2018-12-21T02:10:22.875Z,99435.89
2018-12-21T02:12:53.960Z,99439.48
2018-12-21T02:15:25.056Z,99442.45
2018-12-21T02:17:56.143Z,99436.77
2018-12-21T02:20:27.335Z,99420.70
2018-12-21T02:22:58.479Z,99421.51
2018-12-21T02:25:29.463Z,99413.70
2018-12-21T02:28:00.535Z,99425.46
2018-12-21T02:30:31.635Z,99413.11
2018-12-21T02:33:02.708Z,99410.74
2018-12-21T02:35:33.831Z,99404.53
2018-12-21T02:38:04.896Z,99403.36
2018-12-21T02:40:36.005Z,99396.63
2018-12-21T02:43:07.169Z,99393.96
2018-12-21T02:45:38.285Z,99390.19
2018-12-21T02:48:09.355Z,99385.95
2018-12-21T02:50:40.460Z,99374.69
2018-12-21T02:53:11.537Z,99378.95
2018-12-21T02:55:42.657Z,99373.38
2018-12-21T02:58:13.617Z,99372.73
2018-12-21T03:00:44.608Z,99364.06
2018-12-21T03:03:15.687Z,99357.86
2018-12-21T03:05:46.783Z,99362.81
2018-12-21T03:08:17.853Z,99354.21
2018-12-21T03:10:48.944Z,99350.70
2018-12-21T03:13:20.024Z,99351.17
2018-12-21T03:15:51.108Z,99340.61
2018-12-21T03:18:22.205Z,99345.93
2018-12-21T03:20:53.304Z,99336.38
2018-12-21T03:23:24.391Z,99335.80
2018-12-21T03:25:55.508Z,99332.71
2018-12-21T03:28:26.603Z,99329.52
2018-12-21T03:30:57.784Z,99321.02
2018-12-21T03:33:28.847Z,99315.98
2018-12-21T03:35:59.945Z,99316.20
2018-12-21T03:38:31.031Z,99313.27
2018-12-21T03:41:02.153Z,99311.05
2018-12-21T03:43:33.222Z,99298.25
2018-12-21T03:46:04.316Z,99294.30
2018-12-21T03:48:35.396Z,99292.50
2018-12-21T03:51:06.497Z,99290.42
2018-12-21T03:53:37.555Z,99285.70
2018-12-21T03:56:08.684Z,99276.27
2018-12-21T03:58:39.923Z,99272.97
2018-12-21T04:01:11.024Z,99272.66
2018-12-21T04:03:42.103Z,99264.06
2018-12-21T04:06:13.190Z,99253.14
2018-12-21T04:08:44.275Z,99250.11
2018-12-21T04:11:15.398Z,99257.86
2018-12-21T04:13:46.470Z,99263.55
2018-12-21T04:16:17.573Z,99252.23
2018-12-21T04:18:48.665Z,99249.38
2018-12-21T04:21:19.756Z,99248.85
2018-12-21T04:23:50.848Z,99248.64
2018-12-21T04:26:22.016Z,99259.06
2018-12-21T04:28:53.072Z,99257.20
2018-12-21T04:31:24.178Z,99257.36
2018-12-21T04:33:55.355Z,99256.09
2018-12-21T04:36:26.454Z,99249.78
2018-12-21T04:38:57.568Z,99249.62
2018-12-21T04:41:28.656Z,99240.90
2018-12-21T04:43:59.733Z,99225.95
2018-12-21T04:46:30.905Z,99222.32
2018-12-21T04:49:02.085Z,99222.06
2018-12-21T04:51:33.169Z,99221.55
2018-12-21T04:54:04.252Z,99213.78
2018-12-21T04:56:35.359Z,99210.56
2018-12-21T04:59:06.442Z,99200.03
2018-12-21T05:01:37.568Z,99198.02
2018-12-21T05:04:08.705Z,99187.09
2018-12-21T05:06:39.692Z,99189.33
2018-12-21T05:09:10.643Z,99188.27
2018-12-21T05:11:41.628Z,99183.91
2018-12-21T05:14:12.699Z,99178.97
2018-12-21T05:16:43.835Z,99174.08
2018-12-21T05:19:14.916Z,99169.08
2018-12-21T05:21:46.107Z,99161.61
2018-12-21T05:24:17.471Z,99161.81
2018-12-21T05:26:48.591Z,99143.81
2018-12-21T05:29:20.627Z,99139.03
2018-12-21T05:31:51.756Z,99145.89
2018-12-21T05:34:22.879Z,99136.38
2018-12-21T05:36:53.988Z,99134.75
2018-12-21T05:39:25.088Z,99123.00
2018-12-21T05:41:56.199Z,99109.94
2018-12-21T05:44:27.271Z,99107.66
2018-12-21T05:46:58.412Z,99109.86
2018-12-21T05:49:36.027Z,99097.91
2018-12-21T05:52:07.130Z,99096.02
2018-12-21T05:54:38.196Z,99096.85
2018-12-21T05:57:09.304Z,99082.78
2018-12-21T05:59:40.407Z,99084.78
2018-12-21T06:02:11.520Z,99074.02
2018-12-21T06:04:42.588Z,99062.07
2018-12-21T06:07:13.688Z,99062.23
2018-12-21T06:09:44.765Z,99052.34
2018-12-21T06:12:15.864Z,99049.02
2018-12-21T06:14:46.940Z,99049.34
2018-12-21T06:17:18.046Z,99032.72
2018-12-21T06:19:49.173Z,99024.38
2018-12-21T06:22:20.169Z,99028.62
2018-12-21T06:24:51.258Z,99008.72
2018-12-21T06:27:22.388Z,99002.98
2018-12-21T06:29:53.760Z,99003.50
2018-12-21T06:32:24.884Z,98999.27
2018-12-21T06:34:55.872Z,99003.94
2018-12-21T06:37:26.975Z,98982.70
2018-12-21T06:39:58.056Z,98969.06
2018-12-21T06:42:29.164Z,98963.58
2018-12-21T06:45:00.261Z,98937.56
2018-12-21T06:47:31.386Z,98916.38
2018-12-21T06:50:02.462Z,98917.85
2018-12-21T06:52:33.558Z,98916.73
2018-12-21T06:55:04.695Z,98910.16
2018-12-21T06:57:35.796Z,98913.07
2018-12-21T07:00:10.233Z,98909.84
2018-12-21T07:02:41.336Z,98908.99
2018-12-21T07:05:12.420Z,98909.05
2018-12-21T07:07:43.523Z,98904.80
2018-12-21T07:10:14.600Z,98904.49
2018-12-21T07:12:46.822Z,98890.78
2018-12-21T07:15:18.288Z,98899.27
2018-12-21T07:17:49.476Z,98906.87
2018-12-21T07:20:20.460Z,98898.70
2018-12-21T07:22:51.570Z,98900.18
2018-12-21T07:25:22.668Z,98906.94
2018-12-21T07:27:53.779Z,98892.31
2018-12-21T07:30:24.725Z,98892.69
2018-12-21T07:32:55.852Z,98899.39
2018-12-21T07:35:26.815Z,98878.47
2018-12-21T07:37:57.914Z,98881.50
2018-12-21T07:40:28.976Z,98877.31
2018-12-21T07:43:00.068Z,98879.16
2018-12-21T07:45:31.152Z,98875.27
2018-12-21T07:48:02.267Z,98851.70
2018-12-21T07:50:33.355Z,98855.68
2018-12-21T07:53:04.434Z,98860.52
2018-12-21T07:55:35.542Z,98859.88
2018-12-21T07:58:06.606Z,98853.19
2018-12-21T08:00:37.696Z,98848.52
2018-12-21T08:03:10.095Z,98858.98
2018-12-21T08:05:41.193Z,98855.33
2018-12-21T08:08:12.326Z,98853.25
2018-12-21T08:10:43.424Z,98839.03
2018-12-21T08:13:14.395Z,98846.62
2018-12-21T08:15:45.481Z,98838.17
2018-12-21T08:18:16.572Z,98832.23
2018-12-21T08:20:47.679Z,98831.85
2018-12-21T08:23:18.650Z,98821.13
2018-12-21T08:25:49.630Z,98828.30
2018-12-21T08:28:20.707Z,98838.81
2018-12-21T08:30:51.877Z,98816.78
2018-12-21T08:33:22.878Z,98823.36
2018-12-21T08:35:54.749Z,98801.33
2018-12-21T08:38:25.948Z,98822.20
2018-12-21T08:40:58.582Z,98814.34
2018-12-21T08:43:29.548Z,98816.41
2018-12-21T08:46:00.643Z,98815.30
2018-12-21T08:48:31.732Z,98828.47
2018-12-21T08:51:02.840Z,98804.95
2018-12-21T08:53:33.912Z,98798.84
2018-12-21T08:56:05.013Z,98794.38
2018-12-21T08:58:36.091Z,98807.23
2018-12-21T09:01:07.206Z,98801.33
2018-12-21T09:03:38.820Z,98792.62
2018-12-21T09:06:18.287Z,98787.86
2018-12-21T09:08:42.936Z,98769.64
2018-12-21T09:11:14.216Z,98773.52
2018-12-21T09:13:45.358Z,98765.23
2018-12-21T09:16:16.400Z,98766.60
2018-12-21T09:18:47.499Z,98758.81
2018-12-21T09:21:18.685Z,98763.27
2018-12-21T09:23:49.910Z,98754.82
2018-12-21T09:41:33.546Z,98693.25
2018-12-21T09:44:05.188Z,98693.19
2018-12-21T09:46:37.232Z,98676.92
2018-12-21T09:49:09.299Z,98672.99
2018-12-21T09:51:40.844Z,98666.12
2018-12-21T09:54:12.928Z,98664.27
2018-12-21T09:56:44.151Z,98652.89
2018-12-21T09:59:15.704Z,98650.06
2018-12-21T10:01:47.014Z,98665.24
2018-12-21T10:04:18.344Z,98640.64
2018-12-21T10:06:49.451Z,98634.23
2018-12-21T10:09:21.362Z,98637.05
2018-12-21T10:11:52.686Z,98644.42
2018-12-21T10:14:23.769Z,98633.16
2018-12-21T10:16:55.068Z,98631.81
2018-12-21T10:19:26.367Z,98640.50
2018-12-21T10:21:58.766Z,98628.24
2018-12-21T10:24:30.090Z,98638.80
2018-12-21T10:27:01.262Z,98626.22
2018-12-21T10:29:32.853Z,98629.24
2018-12-21T10:32:04.217Z,98625.87
2018-12-21T10:34:35.403Z,98613.56
2018-12-21T10:37:06.343Z,98612.45
2018-12-21T10:39:37.678Z,98616.91
2018-12-21T10:42:08.720Z,98625.39
2018-12-21T10:44:39.921Z,98617.11
2018-12-21T10:47:11.194Z,98616.67
2018-12-21T10:49:42.352Z,98600.55
2018-12-21T10:52:13.753Z,98600.23
2018-12-21T10:54:45.063Z,98608.04
2018-12-21T10:57:16.174Z,98593.91
2018-12-21T10:59:47.391Z,98602.28
2018-12-21T11:02:18.739Z,98595.67
2018-12-21T11:04:49.745Z,98590.66
2018-12-21T11:07:20.951Z,98584.95
2018-12-21T11:09:54.031Z,98591.17
2018-12-21T11:12:25.246Z,98582.65
2018-12-21T11:14:56.343Z,98589.02
2018-12-21T11:17:27.916Z,98576.68
2018-12-21T11:19:59.203Z,98574.25
2018-12-21T11:22:30.349Z,98569.20
2018-12-21T11:25:01.570Z,98578.00
2018-12-21T11:27:32.736Z,98562.59
2018-12-21T11:30:04.117Z,98573.19
2018-12-21T11:32:35.253Z,98568.25
2018-12-21T11:35:06.555Z,98568.88
2018-12-21T11:37:37.676Z,98544.98
2018-12-21T11:40:08.748Z,98557.38
2018-12-21T11:42:39.835Z,98560.13
2018-12-21T11:45:11.299Z,98558.50
2018-12-21T11:47:42.472Z,98550.41
2018-12-21T11:50:13.713Z,98557.14
2018-12-21T11:52:44.896Z,98564.04
2018-12-21T11:55:15.973Z,98554.20
2018-12-21T11:57:47.144Z,98549.58
2018-12-21T12:00:18.303Z,98556.39
2018-12-21T12:02:49.389Z,98542.38
2018-12-21T12:05:20.452Z,98539.06
2018-12-21T12:07:51.567Z,98532.22
2018-12-21T12:10:22.644Z,98522.97
2018-12-21T12:12:53.754Z,98526.67
2018-12-21T12:15:25.016Z,98530.27
2018-12-21T12:17:56.123Z,98520.62
2018-12-21T12:20:27.313Z,98526.20
2018-12-21T12:22:58.405Z,98538.20
2018-12-21T12:25:29.488Z,98530.11
2018-12-21T12:28:00.581Z,98527.44
2018-12-21T12:30:31.759Z,98526.52
2018-12-21T12:33:02.880Z,98517.47
2018-12-21T12:35:33.939Z,98523.73
2018-12-21T12:38:05.031Z,98523.09
2018-12-21T12:40:36.156Z,98516.48
2018-12-21T12:43:07.348Z,98513.17
2018-12-21T12:45:38.463Z,98516.59
2018-12-21T12:48:09.451Z,98529.74
2018-12-21T12:50:40.544Z,98516.52
2018-12-21T12:53:11.633Z,98524.05
2018-12-21T12:55:42.812Z,98536.64
2018-12-21T12:58:13.905Z,98541.66
2018-12-21T13:00:44.975Z,98551.94
2018-12-21T13:03:15.958Z,98548.84
2018-12-21T13:05:47.028Z,98533.41
2018-12-21T13:08:18.137Z,98541.62
2018-12-21T13:10:49.296Z,98531.58
2018-12-21T13:13:20.434Z,98528.15
2018-12-21T13:15:51.505Z,98542.50
2018-12-21T13:18:22.607Z,98535.44
2018-12-21T13:20:53.734Z,98531.02
2018-12-21T13:23:24.804Z,98525.00
2018-12-21T13:25:55.948Z,98534.56
2018-12-21T13:28:27.039Z,98529.50
2018-12-21T13:30:58.006Z,98523.16
2018-12-21T13:33:29.116Z,98511.59
2018-12-21T13:36:00.288Z,98517.53
2018-12-21T13:38:31.473Z,98502.19
2018-12-21T13:41:02.528Z,98521.56
2018-12-21T13:43:33.617Z,98518.12
2018-12-21T13:46:04.677Z,98506.32
2018-12-21T13:48:35.799Z,98516.25
2018-12-21T13:51:06.855Z,98512.66
2018-12-21T13:53:38.099Z,98507.95
2018-12-21T13:56:09.164Z,98496.94
2018-12-21T13:58:40.259Z,98499.97
2018-12-21T14:01:11.368Z,98503.75
2018-12-21T14:03:42.589Z,98512.36
2018-12-21T14:06:14.569Z,98508.77
2018-12-21T14:08:45.585Z,98511.96
2018-12-21T14:11:16.647Z,98508.33
2018-12-21T14:13:47.768Z,98526.67
2018-12-21T14:16:19.335Z,98511.23
2018-12-21T14:18:50.589Z,98514.50
2018-12-21T14:21:21.652Z,98516.81
2018-12-21T14:23:52.845Z,98531.48
2018-12-21T14:26:24.008Z,98534.88
2018-12-21T14:28:55.125Z,98549.07
2018-12-21T14:31:26.191Z,98560.56
2018-12-21T14:33:57.397Z,98554.94
2018-12-21T14:36:28.461Z,98553.22
2018-12-21T14:38:59.591Z,98573.69
2018-12-21T14:41:30.644Z,98569.38
2018-12-21T14:44:01.971Z,98573.17
2018-12-21T14:46:33.050Z,98584.41
2018-12-21T14:49:04.296Z,98571.48
2018-12-21T14:51:35.556Z,98582.81
2018-12-21T14:54:06.674Z,98573.36
2018-12-21T14:56:37.839Z,98574.80
2018-12-21T14:59:08.935Z,98579.62
2018-12-21T15:01:40.000Z,98582.09
2018-12-21T15:04:11.251Z,98578.54
2018-12-21T15:06:42.429Z,98583.77
2018-12-21T15:09:14.150Z,98589.71
2018-12-21T15:11:45.229Z,98588.08
2018-12-21T15:14:16.393Z,98587.80
2018-12-21T15:16:47.508Z,98593.86
2018-12-21T15:19:18.635Z,98595.94
2018-12-21T15:21:49.796Z,98609.18
2018-12-21T15:24:21.949Z,98605.98
2018-12-21T15:26:53.111Z,98617.52
2018-12-21T15:29:24.184Z,98613.36
2018-12-21T15:31:55.239Z,98615.92
2018-12-21T15:34:26.350Z,98623.77
2018-12-21T15:36:57.431Z,98628.50
2018-12-21T15:39:28.526Z,98627.23
2018-12-21T15:41:59.479Z,98626.03
2018-12-21T15:44:30.568Z,98640.56
2018-12-21T15:47:08.987Z,98645.47
2018-12-21T15:49:34.701Z,98649.13
2018-12-21T15:52:05.791Z,98653.88
2018-12-21T15:54:36.893Z,98654.16
2018-12-21T15:57:08.021Z,98648.66
2018-12-21T15:59:39.174Z,98670.81
2018-12-21T16:02:10.234Z,98667.45
2018-12-21T16:04:41.377Z,98664.78
2018-12-21T16:07:12.491Z,98662.59
2018-12-21T16:09:43.594Z,98668.93
2018-12-21T16:12:14.660Z,98671.64
2018-12-21T16:14:45.737Z,98671.33
2018-12-21T16:17:16.993Z,98673.41
2018-12-21T16:19:48.180Z,98673.23
2018-12-21T16:22:19.233Z,98673.28
2018-12-21T16:24:50.337Z,98690.55
2018-12-21T16:27:21.500Z,98690.67
2018-12-21T16:29:52.606Z,98699.17
2018-12-21T16:32:23.672Z,98698.61
2018-12-21T16:34:54.642Z,98696.66
2018-12-21T16:37:25.931Z,98709.83
2018-12-21T16:39:57.261Z,98703.95
2018-12-21T16:42:28.320Z,98715.97
2018-12-21T16:44:59.440Z,98723.95
2018-12-21T16:47:30.512Z,98717.37
2018-12-21T16:50:01.603Z,98706.39
2018-12-21T16:52:32.773Z,98715.33
2018-12-21T16:55:03.872Z,98727.63
2018-12-21T16:57:34.964Z,98725.45
2018-12-21T17:00:11.760Z,98719.91
2018-12-21T17:02:42.933Z,98720.91
2018-12-21T17:05:14.016Z,98707.98
2018-12-21T17:07:50.327Z,98720.63
2018-12-21T17:10:26.500Z,98711.05
2018-12-21T17:13:02.796Z,98717.72
2018-12-21T17:15:38.959Z,98706.61
2018-12-21T17:18:10.079Z,98703.78
2018-12-21T17:20:41.144Z,98703.19
2018-12-21T17:23:12.224Z,98713.87
2018-12-21T17:25:43.300Z,98712.64
2018-12-21T17:28:14.405Z,98726.09
2018-12-21T17:30:45.458Z,98725.02
2018-12-21T17:33:16.528Z,98720.86
2018-12-21T17:35:47.480Z,98730.80
2018-12-21T17:38:18.560Z,98736.95
2018-12-21T17:40:49.521Z,98723.89
2018-12-21T17:43:20.598Z,98723.30
2018-12-21T17:45:51.631Z,98747.80
2018-12-21T17:48:22.722Z,98731.03
2018-12-21T17:50:53.788Z,98729.88
2018-12-21T17:53:24.998Z,98740.69
2018-12-21T17:55:56.053Z,98745.72
2018-12-21T17:58:27.184Z,98754.34
2018-12-21T18:00:58.240Z,98753.58
2018-12-21T18:03:59.777Z,98759.77
2018-12-21T18:06:30.832Z,98745.17
2018-12-21T18:09:01.907Z,98760.93
2018-12-21T18:11:34.042Z,98764.48
2018-12-21T18:14:05.144Z,98758.41
2018-12-21T18:16:36.208Z,98773.19
2018-12-21T18:19:07.320Z,98766.36
2018-12-21T18:21:50.843Z,98770.07
2018-12-21T18:24:23.080Z,98762.41
2018-12-21T18:26:54.148Z,98763.20
2018-12-21T18:29:25.677Z,98774.27
2018-12-21T18:32:05.303Z,98771.14
2018-12-21T18:34:38.522Z,98776.61
2018-12-21T18:37:10.842Z,98775.53
2018-12-21T18:39:41.915Z,98783.56
2018-12-21T18:42:13.023Z,98793.02
2018-12-21T18:44:44.124Z,98776.38
2018-12-21T18:47:15.236Z,98788.78
2018-12-21T18:49:46.336Z,98792.30
2018-12-21T18:52:18.901Z,98776.05
2018-12-21T18:54:50.100Z,98777.04
2018-12-21T18:57:21.832Z,98783.47
2018-12-21T18:59:53.012Z,98794.50
2018-12-21T19:02:24.084Z,98787.47
2018-12-21T19:04:55.231Z,98789.10
2018-12-21T19:07:26.404Z,98797.25
2018-12-21T19:09:59.399Z,98796.33
2018-12-21T19:12:30.596Z,98795.92
2018-12-21T19:15:01.872Z,98807.71
2018-12-21T19:17:33.063Z,98812.02
2018-12-21T19:20:06.059Z,98813.81
2018-12-21T19:22:37.275Z,98807.27
2018-12-21T19:25:10.800Z,98818.29
2018-12-21T19:27:41.759Z,98824.09
2018-12-21T19:30:13.235Z,98821.05
2018-12-21T19:32:44.507Z,98835.67
2018-12-21T19:35:16.183Z,98832.83
2018-12-21T19:37:47.275Z,98835.50
2018-12-21T19:40:18.412Z,98840.02
2018-12-21T19:42:49.637Z,98845.77
2018-12-21T19:45:20.729Z,98848.37
2018-12-21T19:47:51.962Z,98854.11
2018-12-21T19:50:23.048Z,98847.44
2018-12-21T19:52:54.148Z,98860.87
2018-12-21T19:55:53.937Z,98869.14
2018-12-21T19:58:25.008Z,98855.20
2018-12-21T20:00:56.199Z,98864.23
2018-12-21T20:03:27.313Z,98855.59
2018-12-21T20:05:58.407Z,98868.22
2018-12-21T20:08:29.619Z,98859.08
2018-12-21T20:11:00.697Z,98857.31
2018-12-21T20:13:32.012Z,98858.63
2018-12-21T20:16:03.103Z,98853.20
2018-12-21T20:18:34.187Z,98862.30
2018-12-21T20:21:05.281Z,98860.51
2018-12-21T20:23:36.339Z,98858.63
2018-12-21T20:26:07.427Z,98867.73
2018-12-21T20:28:38.492Z,98864.06
2018-12-21T20:31:09.584Z,98856.72
2018-12-21T20:33:40.753Z,98859.08
2018-12-21T20:36:11.977Z,98864.06
2018-12-21T20:38:43.109Z,98864.55
2018-12-21T20:41:14.196Z,98871.78
2018-12-21T20:43:45.256Z,98874.13
2018-12-21T20:46:16.355Z,98866.30
2018-12-21T20:48:47.429Z,98861.98
2018-12-21T20:51:18.520Z,98858.84
2018-12-21T20:53:49.590Z,98855.67
2018-12-21T20:56:20.680Z,98848.20
2018-12-21T20:58:57.952Z,98857.31
2018-12-21T21:01:36.854Z,98851.36
2018-12-21T21:04:07.926Z,98847.48
2018-12-21T21:06:39.104Z,98847.52
2018-12-21T21:09:12.682Z,98840.97
2018-12-21T21:11:43.775Z,98837.26
2018-12-21T21:14:17.099Z,98842.86
2018-12-21T21:16:48.180Z,98846.69
2018-12-21T21:19:19.277Z,98850.68
2018-12-21T21:21:50.323Z,98847.32
2018-12-21T21:24:21.389Z,98844.41
2018-12-21T21:26:52.477Z,98829.03
2018-12-21T21:29:23.537Z,98834.02
2018-12-21T21:31:54.653Z,98836.91
2018-12-21T21:34:25.807Z,98843.13
2018-12-21T21:36:56.904Z,98852.40
2018-12-21T21:39:27.976Z,98850.13
2018-12-21T21:41:59.055Z,98862.30
2018-12-21T21:44:30.214Z,98867.09
2018-12-21T21:47:01.298Z,98866.11
2018-12-21T21:49:32.350Z,98869.02
2018-12-21T21:52:03.477Z,98869.82
2018-12-21T21:54:34.597Z,98872.37
2018-12-21T21:57:05.697Z,98876.53
2018-12-21T21:59:36.753Z,98875.30
2018-12-21T22:02:07.483Z,98877.84
2018-12-21T22:04:38.420Z,98889.95
2018-12-21T22:07:09.505Z,98882.33
2018-12-21T22:09:40.858Z,98884.12
2018-12-21T22:12:11.839Z,98889.42
2018-12-21T22:14:42.896Z,98879.84
2018-12-21T22:17:13.975Z,98889.35
2018-12-21T22:19:45.066Z,98896.94
2018-12-21T22:22:16.159Z,98901.73
2018-12-21T22:24:47.228Z,98899.98
2018-12-21T22:27:18.310Z,98901.94
2018-12-21T22:29:49.369Z,98899.98
2018-12-21T22:32:20.453Z,98893.91
2018-12-21T22:34:51.532Z,98891.83
2018-12-21T22:37:22.614Z,98895.22
2018-12-21T22:39:53.672Z,98904.05
2018-12-21T22:42:24.761Z,98896.86
2018-12-21T22:44:55.737Z,98894.30
2018-12-21T22:47:26.712Z,98884.12
2018-12-21T22:49:58.204Z,98883.96
2018-12-21T22:52:29.298Z,98880.61
2018-12-21T22:55:00.420Z,98888.34
2018-12-21T22:57:31.513Z,98885.59
2018-12-21T23:00:02.457Z,98892.55
2018-12-21T23:02:35.029Z,98889.19
2018-12-21T23:05:06.278Z,98879.96
2018-12-21T23:07:37.352Z,98879.48
2018-12-21T23:10:08.783Z,98881.75
2018-12-21T23:12:39.882Z,98881.11
2018-12-21T23:15:10.833Z,98874.41
2018-12-21T23:17:41.930Z,98872.48
2018-12-21T23:20:13.021Z,98875.41
2018-12-21T23:22:44.112Z,98871.45
2018-12-21T23:25:15.185Z,98879.12
2018-12-21T23:27:46.289Z,98878.39
2018-12-21T23:30:17.361Z,98865.56
2018-12-21T23:32:48.456Z,98870.24
2018-12-21T23:35:19.528Z,98865.97
2018-12-21T23:37:50.620Z,98861.13
2018-12-21T23:40:21.688Z,98859.09
2018-12-21T23:42:52.789Z,98857.69
2018-12-21T23:45:23.848Z,98858.01
2018-12-21T23:47:54.922Z,98857.97
2018-12-21T23:50:26.009Z,98864.21
2018-12-21T23:52:57.182Z,98868.88
2018-12-21T23:55:28.240Z,98872.40
2018-12-21T23:57:59.340Z,98876.59
